sensor_id;sensor_type;location;lat;lon;timestamp;pressure;altitude;pressure_sealevel;temperature;humidity
41866;BME280;27539;43.222;27.558;2023-03-02T14:25:24;101066.38;;;7.86;100.00
41866;BME280;27539;43.222;27.558;2023-03-02T14:27:50;101026.13;;;7.76;100.00
41866;BME280;27539;43.222;27.558;2023-03-02T14:30:18;101073.53;;;8.13;100.00
41866;BME280;27539;43.222;27.558;2023-03-02T14:32:44;101058.78;;;8.19;100.00
41866;BME280;27539;43.222;27.558;2023-03-02T14:35:11;101071.53;;;8.40;100.00
41866;BME280;27539;43.222;27.558;2023-03-02T14:37:40;101031.06;;;8.19;100.00
41866;BME280;27539;43.222;27.558;2023-03-02T14:40:15;101050.53;;;8.58;100.00
41866;BME280;27539;43.222;27.558;2023-03-02T14:42:41;100997.78;;;8.26;100.00
41866;BME280;27539;43.222;27.558;2023-03-02T14:45:09;101018.22;;;8.32;100.00
41866;BME280;27539;43.222;27.558;2023-03-02T14:47:34;101054.44;;;8.50;100.00
41866;BME280;27539;43.222;27.558;2023-03-02T14:50:00;101063.16;;;8.47;100.00
41866;BME280;27539;43.222;27.558;2023-03-02T14:52:34;101016.34;;;8.26;100.00
41866;BME280;27539;43.222;27.558;2023-03-02T14:55:06;101063.31;;;8.59;100.00
41866;BME280;27539;43.222;27.558;2023-03-02T14:57:36;101055.22;;;8.57;100.00
41866;BME280;27539;43.222;27.558;2023-03-02T15:00:07;101064.78;;;8.68;100.00
41866;BME280;27539;43.222;27.558;2023-03-02T15:02:32;101011.91;;;8.56;100.00
41866;BME280;27539;43.222;27.558;2023-03-02T15:04:58;101059.75;;;8.83;100.00
41866;BME280;27539;43.222;27.558;2023-03-02T15:07:27;101060.25;;;8.74;100.00
41866;BME280;27539;43.222;27.558;2023-03-02T15:09:54;101026.91;;;8.49;100.00
41866;BME280;27539;43.222;27.558;2023-03-02T15:12:20;101045.06;;;8.83;100.00
41866;BME280;27539;43.222;27.558;2023-03-02T15:14:46;101042.94;;;8.78;100.00
41866;BME280;27539;43.222;27.558;2023-03-02T15:17:11;101049.66;;;8.57;100.00
41866;BME280;27539;43.222;27.558;2023-03-02T15:19:36;101046.53;;;8.47;100.00
41866;BME280;27539;43.222;27.558;2023-03-02T15:22:03;101038.44;;;8.46;100.00
41866;BME280;27539;43.222;27.558;2023-03-02T15:24:28;101058.63;;;8.59;100.00
41866;BME280;27539;43.222;27.558;2023-03-02T15:26:55;101011.34;;;8.03;100.00
41866;BME280;27539;43.222;27.558;2023-03-02T15:29:20;101049.13;;;8.42;100.00
41866;BME280;27539;43.222;27.558;2023-03-02T15:31:46;101052.41;;;8.12;100.00
41866;BME280;27539;43.222;27.558;2023-03-02T15:34:12;101033.53;;;7.89;100.00
41866;BME280;27539;43.222;27.558;2023-03-02T15:36:38;101035.91;;;7.72;100.00
41866;BME280;27539;43.222;27.558;2023-03-02T15:39:03;101002.28;;;7.62;100.00
41866;BME280;27539;43.222;27.558;2023-03-02T15:41:29;101023.72;;;7.93;100.00
41866;BME280;27539;43.222;27.558;2023-03-02T15:43:54;101058.22;;;7.97;100.00
41866;BME280;27539;43.222;27.558;2023-03-02T15:46:21;101040.97;;;7.95;100.00
41866;BME280;27539;43.222;27.558;2023-03-02T15:48:47;101055.50;;;7.91;100.00
41866;BME280;27539;43.222;27.558;2023-03-02T15:51:12;101069.31;;;7.97;100.00
41866;BME280;27539;43.222;27.558;2023-03-02T15:53:39;101060.38;;;7.95;100.00
41866;BME280;27539;43.222;27.558;2023-03-02T15:56:10;101071.25;;;7.90;100.00
41866;BME280;27539;43.222;27.558;2023-03-02T15:58:38;101031.00;;;7.88;100.00
41866;BME280;27539;43.222;27.558;2023-03-02T16:01:08;101026.56;;;7.67;100.00
41866;BME280;27539;43.222;27.558;2023-03-02T16:03:34;101063.47;;;8.19;100.00
41866;BME280;27539;43.222;27.558;2023-03-02T16:05:59;101067.59;;;8.03;100.00
41866;BME280;27539;43.222;27.558;2023-03-02T16:08:25;101032.97;;;7.54;100.00
41866;BME280;27539;43.222;27.558;2023-03-02T16:10:59;101061.47;;;7.81;100.00
41866;BME280;27539;43.222;27.558;2023-03-02T16:13:26;101019.13;;;7.61;100.00
41866;BME280;27539;43.222;27.558;2023-03-02T16:15:51;101076.44;;;7.60;100.00
41866;BME280;27539;43.222;27.558;2023-03-02T16:18:17;101094.31;;;7.77;100.00
41866;BME280;27539;43.222;27.558;2023-03-02T16:20:42;101067.72;;;7.36;100.00
41866;BME280;27539;43.222;27.558;2023-03-02T16:23:09;101063.03;;;7.37;100.00
41866;BME280;27539;43.222;27.558;2023-03-02T16:25:38;101053.66;;;7.11;100.00
41866;BME280;27539;43.222;27.558;2023-03-02T16:28:05;101066.25;;;7.07;100.00
41866;BME280;27539;43.222;27.558;2023-03-02T16:30:31;101077.72;;;7.24;100.00
41866;BME280;27539;43.222;27.558;2023-03-02T16:32:58;101077.72;;;7.24;100.00
41866;BME280;27539;43.222;27.558;2023-03-02T16:35:25;101095.19;;;7.11;100.00
41866;BME280;27539;43.222;27.558;2023-03-02T16:37:50;63504.72;;;-145.93;100.00
41866;BME280;27539;43.222;27.558;2023-03-02T16:40:16;101096.03;;;7.05;100.00
41866;BME280;27539;43.222;27.558;2023-03-02T16:42:42;63504.72;;;-145.93;100.00
41866;BME280;27539;43.222;27.558;2023-03-02T16:45:08;63504.72;;;-145.93;100.00
41866;BME280;27539;43.222;27.558;2023-03-02T16:47:33;63504.72;;;-145.93;100.00
41866;BME280;27539;43.222;27.558;2023-03-02T16:49:58;63504.72;;;-145.93;100.00
41866;BME280;27539;43.222;27.558;2023-03-02T16:52:24;63504.72;;;-145.93;100.00
41866;BME280;27539;43.222;27.558;2023-03-02T16:54:49;101101.16;;;7.08;100.00
41866;BME280;27539;43.222;27.558;2023-03-02T16:57:16;63504.72;;;-145.93;100.00
41866;BME280;27539;43.222;27.558;2023-03-02T16:59:41;101055.78;;;6.96;100.00
41866;BME280;27539;43.222;27.558;2023-03-02T17:02:09;101067.09;;;7.08;100.00
41866;BME280;27539;43.222;27.558;2023-03-02T17:04:35;101076.03;;;7.10;100.00
41866;BME280;27539;43.222;27.558;2023-03-02T17:07:02;101108.81;;;7.53;100.00
41866;BME280;27539;43.222;27.558;2023-03-02T17:09:28;101103.66;;;7.70;100.00
41866;BME280;27539;43.222;27.558;2023-03-02T17:11:54;101094.31;;;7.77;100.00
41866;BME280;27539;43.222;27.558;2023-03-02T17:14:19;101110.50;;;7.67;100.00
41866;BME280;27539;43.222;27.558;2023-03-02T17:16:45;101116.06;;;7.61;100.00
41866;BME280;27539;43.222;27.558;2023-03-02T17:19:10;101099.44;;;7.21;100.00
41866;BME280;27539;43.222;27.558;2023-03-02T17:21:36;101091.34;;;7.19;100.00
41866;BME280;27539;43.222;27.558;2023-03-02T17:24:02;101123.03;;;6.90;100.00
41866;BME280;27539;43.222;27.558;2023-03-02T17:26:27;101121.72;;;6.73;100.00
41866;BME280;27539;43.222;27.558;2023-03-02T17:28:52;101124.25;;;6.67;100.00
41866;BME280;27539;43.222;27.558;2023-03-02T17:31:18;101110.44;;;6.67;100.00
41866;BME280;27539;43.222;27.558;2023-03-02T17:33:43;101110.44;;;6.67;100.00
41866;BME280;27539;43.222;27.558;2023-03-02T17:36:09;101110.44;;;6.67;100.00
41866;BME280;27539;43.222;27.558;2023-03-02T17:38:36;63504.72;;;-145.93;100.00
41866;BME280;27539;43.222;27.558;2023-03-02T17:41:03;63504.72;;;-145.93;100.00
41866;BME280;27539;43.222;27.558;2023-03-02T17:43:34;63504.72;;;-145.93;100.00
41866;BME280;27539;43.222;27.558;2023-03-02T17:48:34;101111.56;;;7.06;100.00
41866;BME280;27539;43.222;27.558;2023-03-02T17:51:00;101123.31;;;7.28;100.00
41866;BME280;27539;43.222;27.558;2023-03-02T17:53:25;101095.41;;;7.10;100.00
41866;BME280;27539;43.222;27.558;2023-03-02T17:55:50;101095.41;;;7.10;100.00
41866;BME280;27539;43.222;27.558;2023-03-02T17:58:16;101087.00;;;6.63;100.00
41866;BME280;27539;43.222;27.558;2023-03-02T18:00:43;101130.41;;;6.69;100.00
41866;BME280;27539;43.222;27.558;2023-03-02T18:03:08;101088.19;;;6.34;100.00
41866;BME280;27539;43.222;27.558;2023-03-02T18:05:33;101104.72;;;6.82;100.00
41866;BME280;27539;43.222;27.558;2023-03-02T18:07:59;101104.31;;;7.12;100.00
41866;BME280;27539;43.222;27.558;2023-03-02T18:10:24;101108.38;;;7.16;100.00
41866;BME280;27539;43.222;27.558;2023-03-02T18:12:50;101102.66;;;7.31;100.00
41866;BME280;27539;43.222;27.558;2023-03-02T18:15:15;101068.78;;;7.29;100.00
41866;BME280;27539;43.222;27.558;2023-03-02T18:17:41;101110.09;;;7.64;100.00
41866;BME280;27539;43.222;27.558;2023-03-02T18:20:07;101078.34;;;7.60;100.00
41866;BME280;27539;43.222;27.558;2023-03-02T18:22:32;101112.19;;;7.82;100.00
41866;BME280;27539;43.222;27.558;2023-03-02T18:24:58;101116.00;;;7.94;100.00
41866;BME280;27539;43.222;27.558;2023-03-02T18:27:23;101071.31;;;7.70;100.00
41866;BME280;27539;43.222;27.558;2023-03-02T18:29:49;101117.94;;;7.87;100.00
41866;BME280;27539;43.222;27.558;2023-03-02T18:32:14;101110.25;;;7.89;100.00
41866;BME280;27539;43.222;27.558;2023-03-02T18:34:40;101082.78;;;7.81;100.00
41866;BME280;27539;43.222;27.558;2023-03-02T18:37:06;101078.53;;;7.78;100.00
41866;BME280;27539;43.222;27.558;2023-03-02T18:39:31;101108.78;;;7.86;100.00
41866;BME280;27539;43.222;27.558;2023-03-02T18:41:57;101108.78;;;7.86;100.00
41866;BME280;27539;43.222;27.558;2023-03-02T18:44:22;63504.72;;;-145.93;100.00
41866;BME280;27539;43.222;27.558;2023-03-02T18:46:52;63504.72;;;-145.93;100.00
41866;BME280;27539;43.222;27.558;2023-03-02T18:49:18;63504.72;;;-145.93;100.00
41866;BME280;27539;43.222;27.558;2023-03-02T18:51:43;101108.78;;;7.86;100.00
41866;BME280;27539;43.222;27.558;2023-03-02T18:54:09;101115.41;;;7.58;100.00
41866;BME280;27539;43.222;27.558;2023-03-02T18:56:35;101071.78;;;7.07;100.00
41866;BME280;27539;43.222;27.558;2023-03-02T18:59:03;101130.13;;;7.26;100.00
41866;BME280;27539;43.222;27.558;2023-03-02T19:01:31;101128.84;;;7.28;100.00
41866;BME280;27539;43.222;27.558;2023-03-02T19:03:57;63504.72;;;-145.93;100.00
41866;BME280;27539;43.222;27.558;2023-03-02T19:06:25;101128.84;;;7.28;100.00
41866;BME280;27539;43.222;27.558;2023-03-02T19:08:51;63504.72;;;-145.93;100.00
41866;BME280;27539;43.222;27.558;2023-03-02T19:11:17;63504.72;;;-145.93;100.00
41866;BME280;27539;43.222;27.558;2023-03-02T19:13:42;63504.72;;;-145.93;100.00
41866;BME280;27539;43.222;27.558;2023-03-02T19:16:08;63504.72;;;-145.93;100.00
41866;BME280;27539;43.222;27.558;2023-03-02T19:18:33;63504.72;;;-145.93;100.00
41866;BME280;27539;43.222;27.558;2023-03-02T19:20:59;63504.72;;;-145.93;100.00
41866;BME280;27539;43.222;27.558;2023-03-02T19:23:25;63504.72;;;-145.93;100.00
41866;BME280;27539;43.222;27.558;2023-03-02T19:25:52;63504.72;;;-145.93;100.00
41866;BME280;27539;43.222;27.558;2023-03-02T19:28:17;63504.72;;;-145.93;100.00
41866;BME280;27539;43.222;27.558;2023-03-02T19:30:43;63504.72;;;-145.93;100.00
41866;BME280;27539;43.222;27.558;2023-03-02T19:33:09;63504.72;;;-145.93;100.00
41866;BME280;27539;43.222;27.558;2023-03-02T19:35:35;63504.72;;;-145.93;100.00
41866;BME280;27539;43.222;27.558;2023-03-02T19:38:02;63504.72;;;-145.93;100.00
41866;BME280;27539;43.222;27.558;2023-03-02T19:40:28;63504.72;;;-145.93;100.00
41866;BME280;27539;43.222;27.558;2023-03-02T19:42:54;63504.72;;;-145.93;100.00
41866;BME280;27539;43.222;27.558;2023-03-02T19:45:22;63504.72;;;-145.93;100.00
41866;BME280;27539;43.222;27.558;2023-03-02T19:47:49;63504.72;;;-145.93;100.00
41866;BME280;27539;43.222;27.558;2023-03-02T19:50:17;63504.72;;;-145.93;100.00
41866;BME280;27539;43.222;27.558;2023-03-02T19:52:43;63504.72;;;-145.93;100.00
41866;BME280;27539;43.222;27.558;2023-03-02T19:55:10;63504.72;;;-145.93;100.00
41866;BME280;27539;43.222;27.558;2023-03-02T19:57:37;63504.72;;;-145.93;100.00
41866;BME280;27539;43.222;27.558;2023-03-02T20:00:09;63504.72;;;-145.93;100.00
41866;BME280;27539;43.222;27.558;2023-03-02T20:02:37;63504.72;;;-145.93;100.00
41866;BME280;27539;43.222;27.558;2023-03-02T20:05:06;63504.72;;;-145.93;100.00
41866;BME280;27539;43.222;27.558;2023-03-02T20:07:32;63504.72;;;-145.93;100.00
41866;BME280;27539;43.222;27.558;2023-03-02T20:09:58;63504.72;;;-145.93;100.00
41866;BME280;27539;43.222;27.558;2023-03-02T20:12:23;63504.72;;;-145.93;100.00
41866;BME280;27539;43.222;27.558;2023-03-02T20:14:48;63504.72;;;-145.93;100.00
41866;BME280;27539;43.222;27.558;2023-03-02T20:17:16;63504.72;;;-145.93;100.00
41866;BME280;27539;43.222;27.558;2023-03-02T20:19:41;63504.72;;;-145.93;100.00
41866;BME280;27539;43.222;27.558;2023-03-02T20:22:09;63504.72;;;-145.93;100.00
41866;BME280;27539;43.222;27.558;2023-03-02T20:24:35;63504.72;;;-145.93;100.00
41866;BME280;27539;43.222;27.558;2023-03-02T20:27:01;63504.72;;;-145.93;100.00
41866;BME280;27539;43.222;27.558;2023-03-02T20:29:28;63504.72;;;-145.93;100.00
41866;BME280;27539;43.222;27.558;2023-03-02T20:31:53;63504.72;;;-145.93;100.00
41866;BME280;27539;43.222;27.558;2023-03-02T20:34:19;63504.72;;;-145.93;100.00
41866;BME280;27539;43.222;27.558;2023-03-02T20:36:44;63504.72;;;-145.93;100.00
41866;BME280;27539;43.222;27.558;2023-03-02T20:39:18;63504.72;;;-145.93;100.00
41866;BME280;27539;43.222;27.558;2023-03-02T20:41:44;63504.72;;;-145.93;100.00
41866;BME280;27539;43.222;27.558;2023-03-02T20:44:10;63504.72;;;-145.93;100.00
41866;BME280;27539;43.222;27.558;2023-03-02T20:46:41;63504.72;;;-145.93;100.00
41866;BME280;27539;43.222;27.558;2023-03-02T20:49:09;63504.72;;;-145.93;100.00
41866;BME280;27539;43.222;27.558;2023-03-02T20:51:37;63504.72;;;-145.93;100.00
41866;BME280;27539;43.222;27.558;2023-03-02T20:54:04;63504.72;;;-145.93;100.00
41866;BME280;27539;43.222;27.558;2023-03-02T20:56:30;63504.72;;;-145.93;100.00
41866;BME280;27539;43.222;27.558;2023-03-02T20:58:55;63504.72;;;-145.93;100.00
41866;BME280;27539;43.222;27.558;2023-03-02T21:01:21;63504.72;;;-145.93;100.00
41866;BME280;27539;43.222;27.558;2023-03-02T21:03:48;63504.72;;;-145.93;100.00
41866;BME280;27539;43.222;27.558;2023-03-02T21:06:14;63504.72;;;-145.93;100.00
41866;BME280;27539;43.222;27.558;2023-03-02T21:08:40;63504.72;;;-145.93;100.00
41866;BME280;27539;43.222;27.558;2023-03-02T21:11:12;63504.72;;;-145.93;100.00
41866;BME280;27539;43.222;27.558;2023-03-02T21:13:40;63504.72;;;-145.93;100.00
41866;BME280;27539;43.222;27.558;2023-03-02T21:16:06;63504.72;;;-145.93;100.00
41866;BME280;27539;43.222;27.558;2023-03-02T21:18:33;63504.72;;;-145.93;100.00
41866;BME280;27539;43.222;27.558;2023-03-02T21:21:00;63504.72;;;-145.93;100.00
41866;BME280;27539;43.222;27.558;2023-03-02T21:23:25;63504.72;;;-145.93;100.00
41866;BME280;27539;43.222;27.558;2023-03-02T21:25:51;63504.72;;;-145.93;100.00
41866;BME280;27539;43.222;27.558;2023-03-02T21:28:16;63504.72;;;-145.93;100.00
41866;BME280;27539;43.222;27.558;2023-03-02T21:30:42;63504.72;;;-145.93;100.00
41866;BME280;27539;43.222;27.558;2023-03-02T21:33:07;63504.72;;;-145.93;100.00
41866;BME280;27539;43.222;27.558;2023-03-02T21:35:34;63504.72;;;-145.93;100.00
41866;BME280;27539;43.222;27.558;2023-03-02T21:37:59;63504.72;;;-145.93;100.00
41866;BME280;27539;43.222;27.558;2023-03-02T21:40:37;63504.72;;;-145.93;100.00
41866;BME280;27539;43.222;27.558;2023-03-02T21:43:05;63504.72;;;-145.93;100.00
41866;BME280;27539;43.222;27.558;2023-03-02T21:45:31;63504.72;;;-145.93;100.00
41866;BME280;27539;43.222;27.558;2023-03-02T21:47:57;63504.72;;;-145.93;100.00
41866;BME280;27539;43.222;27.558;2023-03-02T21:50:25;63504.72;;;-145.93;100.00
41866;BME280;27539;43.222;27.558;2023-03-02T21:52:51;63504.72;;;-145.93;100.00
41866;BME280;27539;43.222;27.558;2023-03-02T21:55:17;63504.72;;;-145.93;100.00
41866;BME280;27539;43.222;27.558;2023-03-02T21:57:43;63504.72;;;-145.93;100.00
41866;BME280;27539;43.222;27.558;2023-03-02T22:00:18;63504.72;;;-145.93;100.00
41866;BME280;27539;43.222;27.558;2023-03-02T22:02:44;63504.72;;;-145.93;100.00
41866;BME280;27539;43.222;27.558;2023-03-02T22:05:09;63504.72;;;-145.93;100.00
41866;BME280;27539;43.222;27.558;2023-03-02T22:07:35;63504.72;;;-145.93;100.00
41866;BME280;27539;43.222;27.558;2023-03-02T22:10:00;63504.72;;;-145.93;100.00
41866;BME280;27539;43.222;27.558;2023-03-02T22:12:26;63504.72;;;-145.93;100.00
41866;BME280;27539;43.222;27.558;2023-03-02T22:14:52;63504.72;;;-145.93;100.00
41866;BME280;27539;43.222;27.558;2023-03-02T22:17:21;63504.72;;;-145.93;100.00
41866;BME280;27539;43.222;27.558;2023-03-02T22:19:47;63504.72;;;-145.93;100.00
41866;BME280;27539;43.222;27.558;2023-03-02T22:22:17;63504.72;;;-145.93;100.00
41866;BME280;27539;43.222;27.558;2023-03-02T22:24:48;63504.72;;;-145.93;100.00
41866;BME280;27539;43.222;27.558;2023-03-02T22:27:23;63504.72;;;-145.93;100.00
41866;BME280;27539;43.222;27.558;2023-03-02T22:29:50;63504.72;;;-145.93;100.00
41866;BME280;27539;43.222;27.558;2023-03-02T22:32:18;63504.72;;;-145.93;100.00
41866;BME280;27539;43.222;27.558;2023-03-02T22:34:45;63504.72;;;-145.93;100.00
41866;BME280;27539;43.222;27.558;2023-03-02T22:37:20;63504.72;;;-145.93;100.00
41866;BME280;27539;43.222;27.558;2023-03-02T22:39:47;63504.72;;;-145.93;100.00
41866;BME280;27539;43.222;27.558;2023-03-02T22:42:15;63504.72;;;-145.93;100.00
41866;BME280;27539;43.222;27.558;2023-03-02T22:44:42;63504.72;;;-145.93;100.00
41866;BME280;27539;43.222;27.558;2023-03-02T22:47:14;63504.72;;;-145.93;100.00
41866;BME280;27539;43.222;27.558;2023-03-02T22:49:40;63504.72;;;-145.93;100.00
41866;BME280;27539;43.222;27.558;2023-03-02T22:52:13;63504.72;;;-145.93;100.00
41866;BME280;27539;43.222;27.558;2023-03-02T22:54:39;63504.72;;;-145.93;100.00
41866;BME280;27539;43.222;27.558;2023-03-02T22:57:34;63504.72;;;-145.93;100.00
41866;BME280;27539;43.222;27.558;2023-03-02T23:02:43;63504.72;;;-145.93;100.00
41866;BME280;27539;43.222;27.558;2023-03-02T23:05:23;63504.72;;;-145.93;100.00
41866;BME280;27539;43.222;27.558;2023-03-02T23:07:50;63504.72;;;-145.93;100.00
41866;BME280;27539;43.222;27.558;2023-03-02T23:10:20;63504.72;;;-145.93;100.00
41866;BME280;27539;43.222;27.558;2023-03-02T23:12:46;63504.72;;;-145.93;100.00
41866;BME280;27539;43.222;27.558;2023-03-02T23:15:18;63504.72;;;-145.93;100.00
41866;BME280;27539;43.222;27.558;2023-03-02T23:17:44;63504.72;;;-145.93;100.00
41866;BME280;27539;43.222;27.558;2023-03-02T23:20:12;63504.72;;;-145.93;100.00
41866;BME280;27539;43.222;27.558;2023-03-02T23:22:38;63504.72;;;-145.93;100.00
41866;BME280;27539;43.222;27.558;2023-03-02T23:25:05;63504.72;;;-145.93;100.00
41866;BME280;27539;43.222;27.558;2023-03-02T23:27:31;63504.72;;;-145.93;100.00
41866;BME280;27539;43.222;27.558;2023-03-02T23:29:56;63504.72;;;-145.93;100.00
41866;BME280;27539;43.222;27.558;2023-03-02T23:32:22;63504.72;;;-145.93;100.00
41866;BME280;27539;43.222;27.558;2023-03-02T23:34:47;63504.72;;;-145.93;100.00
41866;BME280;27539;43.222;27.558;2023-03-02T23:37:13;63504.72;;;-145.93;100.00
41866;BME280;27539;43.222;27.558;2023-03-02T23:39:38;63504.72;;;-145.93;100.00
41866;BME280;27539;43.222;27.558;2023-03-02T23:42:04;63504.72;;;-145.93;100.00
41866;BME280;27539;43.222;27.558;2023-03-02T23:44:29;63504.72;;;-145.93;100.00
41866;BME280;27539;43.222;27.558;2023-03-02T23:46:55;63504.72;;;-145.93;100.00
41866;BME280;27539;43.222;27.558;2023-03-02T23:49:20;63504.72;;;-145.93;100.00
41866;BME280;27539;43.222;27.558;2023-03-02T23:51:46;63504.72;;;-145.93;100.00
41866;BME280;27539;43.222;27.558;2023-03-02T23:54:12;63504.72;;;-145.93;100.00
41866;BME280;27539;43.222;27.558;2023-03-02T23:56:37;63504.72;;;-145.93;100.00
41866;BME280;27539;43.222;27.558;2023-03-02T23:59:03;63504.72;;;-145.93;100.00
